Time;durP1;ratioP1;P1;durP2;ratioP2;P2;SDS_P1;SDS_P2;PMS_P1;PMS_P2;Temp;Humidity;BMP_temperature;BMP_pressure;BME280_temperature;BME280_humidity;BME280_pressure;Samples;Min_cycle;Max_cycle;Signal;HPM_P1;HPM_P2
2021/06/07 05:02:32;;;;;;;29.77;16.55;;;16.50;99.90;;;;;;5084222;23;20055;-79
2021/06/07 05:04:59;;;;;;;25.30;14.68;;;16.50;99.90;;;;;;4937306;29;20130;-80
2021/06/07 05:07:26;;;;;;;23.35;13.10;;;16.50;99.90;;;;;;4938265;29;20138;-79
2021/06/07 05:09:52;;;;;;;27.88;13.70;;;16.50;99.90;;;;;;4937899;29;20139;-80
2021/06/07 05:12:19;;;;;;;27.38;14.00;;;16.50;99.90;;;;;;4937823;29;20059;-79
2021/06/07 05:14:46;;;;;;;24.15;13.57;;;16.50;99.90;;;;;;4937733;29;20581;-79
2021/06/07 05:17:13;;;;;;;30.23;15.25;;;16.50;99.90;;;;;;4937341;29;20054;-80
2021/06/07 05:19:41;;;;;;;28.45;16.17;;;16.50;99.90;;;;;;4938429;29;20554;-80
2021/06/07 05:22:08;;;;;;;26.70;14.23;;;16.50;99.90;;;;;;4937478;29;20280;-78
2021/06/07 05:24:34;;;;;;;29.17;14.98;;;16.50;99.90;;;;;;4937428;29;20533;-79
2021/06/07 05:27:01;;;;;;;29.10;15.75;;;16.50;99.90;;;;;;4938137;29;20099;-81
2021/06/07 05:29:27;;;;;;;29.50;15.88;;;16.50;99.90;;;;;;4937003;29;20477;-80
2021/06/07 05:31:54;;;;;;;25.85;15.13;;;16.50;99.90;;;;;;5004560;23;20138;-81
2021/06/07 05:34:21;;;;;;;28.95;14.88;;;16.50;99.90;;;;;;4959113;29;20152;-83
2021/06/07 05:36:49;;;;;;;29.38;15.25;;;16.50;99.90;;;;;;4958825;29;20059;-82
2021/06/07 05:39:19;;;;;;;27.23;15.00;;;16.50;99.90;;;;;;4958915;29;20047;-83
2021/06/07 05:41:46;;;;;;;28.42;15.52;;;16.50;99.90;;;;;;4959218;29;20043;-82
2021/06/07 05:44:12;;;;;;;26.40;15.40;;;16.50;99.90;;;;;;4958236;29;20489;-83
2021/06/07 05:46:39;;;;;;;30.60;16.40;;;16.50;99.90;;;;;;4958624;29;20465;-83
2021/06/07 05:49:06;;;;;;;26.67;14.82;;;16.50;99.90;;;;;;4958927;29;20094;-82
2021/06/07 05:51:33;;;;;;;26.58;15.35;;;16.50;99.90;;;;;;4958742;29;20098;-83
2021/06/07 05:54:01;;;;;;;28.05;15.00;;;16.50;99.90;;;;;;4958002;29;20515;-82
2021/06/07 05:56:28;;;;;;;28.95;15.52;;;16.50;99.90;;;;;;4958153;29;20536;-83
2021/06/07 05:58:57;;;;;;;24.15;13.50;;;16.50;99.90;;;;;;4957997;29;20134;-83
2021/06/07 06:01:24;;;;;;;24.80;14.40;;;16.50;99.90;;;;;;4958416;29;20120;-83
2021/06/07 06:03:53;;;;;;;27.77;14.30;;;16.50;99.90;;;;;;4958560;29;20503;-83
2021/06/07 06:06:19;;;;;;;28.70;14.68;;;16.50;99.90;;;;;;4958319;29;20492;-83
2021/06/07 06:08:49;;;;;;;25.90;14.20;;;16.60;99.90;;;;;;4958599;29;20133;-84
2021/06/07 06:11:17;;;;;;;28.42;14.85;;;16.60;99.90;;;;;;4957490;29;20421;-82
2021/06/07 06:13:44;;;;;;;31.17;15.52;;;16.60;99.90;;;;;;4958273;29;20142;-82
2021/06/07 06:16:10;;;;;;;31.98;16.92;;;16.60;99.90;;;;;;4958245;28;20142;-83
2021/06/07 06:18:38;;;;;;;29.70;14.68;;;16.60;99.90;;;;;;4957696;29;20109;-82
2021/06/07 06:21:05;;;;;;;29.25;15.00;;;16.60;99.90;;;;;;4957907;29;20099;-83
2021/06/07 06:23:32;;;;;;;27.58;13.90;;;16.50;99.90;;;;;;4958089;29;20078;-83
2021/06/07 06:25:58;;;;;;;26.42;13.93;;;16.50;99.90;;;;;;4957363;29;20095;-83
2021/06/07 06:28:26;;;;;;;26.73;13.95;;;16.50;99.90;;;;;;4957659;29;20055;-83
2021/06/07 06:30:54;;;;;;;24.73;13.52;;;16.50;99.90;;;;;;4957543;29;20082;-82
2021/06/07 06:33:20;;;;;;;22.80;13.13;;;16.50;99.90;;;;;;4957059;29;20468;-83
2021/06/07 06:35:47;;;;;;;30.60;15.05;;;16.60;99.90;;;;;;4957698;29;20130;-82
2021/06/07 06:38:15;;;;;;;25.95;14.80;;;16.60;99.90;;;;;;4956894;29;20138;-83
2021/06/07 06:40:42;;;;;;;27.85;14.23;;;16.60;99.90;;;;;;4957336;29;20055;-83
2021/06/07 06:43:08;;;;;;;25.10;13.30;;;16.60;99.90;;;;;;4957671;29;20134;-82
2021/06/07 06:45:37;;;;;;;28.27;14.65;;;16.60;99.90;;;;;;4957846;29;20557;-83
2021/06/07 06:48:05;;;;;;;24.10;13.60;;;16.60;99.90;;;;;;4957818;29;20142;-83
2021/06/07 06:50:35;;;;;;;27.60;13.63;;;16.60;99.90;;;;;;4957519;29;20055;-83
2021/06/07 06:53:03;;;;;;;22.55;12.73;;;16.60;99.90;;;;;;4956838;29;20134;-83
2021/06/07 06:55:30;;;;;;;23.20;13.13;;;16.60;99.90;;;;;;4957435;29;20559;-82
2021/06/07 06:57:56;;;;;;;23.80;12.75;;;16.60;99.90;;;;;;4957414;29;20158;-82
2021/06/07 07:00:24;;;;;;;24.48;13.57;;;16.60;99.90;;;;;;4957319;29;20091;-82
2021/06/07 07:02:52;;;;;;;25.98;14.82;;;16.70;99.90;;;;;;4957416;29;20074;-82
2021/06/07 07:05:19;;;;;;;25.25;15.43;;;16.70;99.90;;;;;;4956724;29;20584;-82
2021/06/07 07:07:45;;;;;;;29.45;16.00;;;16.70;99.90;;;;;;4956800;29;20050;-83
2021/06/07 07:10:12;;;;;;;26.45;14.82;;;16.70;99.90;;;;;;4956975;29;20086;-82
2021/06/07 07:12:39;;;;;;;26.23;13.85;;;16.70;99.90;;;;;;4956954;29;20058;-82
2021/06/07 07:15:07;;;;;;;23.08;13.15;;;16.70;99.90;;;;;;4957352;29;20134;-82
2021/06/07 07:17:33;;;;;;;24.52;12.95;;;16.70;99.90;;;;;;4956705;29;20515;-83
2021/06/07 07:20:01;;;;;;;22.08;12.32;;;16.70;99.90;;;;;;4956545;29;20090;-82
2021/06/07 07:22:28;;;;;;;19.90;11.30;;;16.80;99.90;;;;;;4956409;29;20138;-83
2021/06/07 07:24:55;;;;;;;21.60;12.18;;;16.80;99.90;;;;;;4956534;29;20449;-82
2021/06/07 07:27:22;;;;;;;25.25;14.27;;;16.80;99.90;;;;;;4956243;28;20127;-83
2021/06/07 07:29:48;;;;;;;21.60;12.23;;;16.90;99.90;;;;;;4956084;29;20420;-83
2021/06/07 07:32:15;;;;;;;21.90;12.35;;;16.80;99.90;;;;;;4956004;29;20094;-83
2021/06/07 07:34:42;;;;;;;17.02;9.80;;;16.80;99.90;;;;;;4956074;29;20130;-83
2021/06/07 07:37:11;;;;;;;21.48;12.13;;;16.80;99.90;;;;;;4956455;29;20085;-83
2021/06/07 07:39:39;;;;;;;20.73;11.65;;;16.80;99.90;;;;;;4956090;29;20059;-83
2021/06/07 07:42:07;;;;;;;20.48;12.10;;;16.80;99.90;;;;;;4956182;29;20138;-83
2021/06/07 07:44:34;;;;;;;19.13;11.45;;;16.80;99.90;;;;;;4956019;29;20087;-82
2021/06/07 07:47:02;;;;;;;18.73;10.32;;;16.80;99.90;;;;;;4955818;29;20126;-83
2021/06/07 07:49:29;;;;;;;21.10;11.00;;;16.80;99.90;;;;;;4955873;29;20142;-82
2021/06/07 07:51:55;;;;;;;19.73;11.00;;;16.80;99.90;;;;;;4956344;29;20051;-83
2021/06/07 07:54:23;;;;;;;17.33;9.80;;;16.80;99.90;;;;;;4956346;29;20126;-83
2021/06/07 07:56:50;;;;;;;16.35;9.80;;;16.80;99.90;;;;;;4956254;29;20552;-83
2021/06/07 07:59:17;;;;;;;16.15;8.95;;;16.80;99.90;;;;;;4956046;29;20179;-84
2021/06/07 08:01:43;;;;;;;17.52;9.23;;;16.80;99.90;;;;;;4955746;29;20079;-82
2021/06/07 08:04:10;;;;;;;16.45;9.65;;;16.90;99.90;;;;;;4956353;29;20070;-83
2021/06/07 08:06:37;;;;;;;16.13;9.32;;;16.90;99.90;;;;;;4955935;29;20583;-83
2021/06/07 08:09:05;;;;;;;18.60;10.20;;;16.90;99.90;;;;;;4956031;29;20142;-83
2021/06/07 08:11:32;;;;;;;18.17;9.40;;;17.00;99.90;;;;;;4955989;29;20082;-84
2021/06/07 08:13:59;;;;;;;18.70;10.15;;;17.00;99.90;;;;;;4955588;29;20055;-82
2021/06/07 08:16:26;;;;;;;16.67;9.90;;;17.00;99.90;;;;;;4955642;29;20513;-82
2021/06/07 08:18:53;;;;;;;18.90;10.50;;;17.10;99.90;;;;;;4955941;29;20540;-83
2021/06/07 08:21:19;;;;;;;17.90;9.95;;;17.10;99.90;;;;;;4956143;29;20106;-83
2021/06/07 08:23:46;;;;;;;19.70;10.70;;;17.20;99.90;;;;;;4956190;29;20473;-83
2021/06/07 08:26:13;;;;;;;17.20;9.40;;;17.20;99.90;;;;;;4955608;29;20367;-82
2021/06/07 08:28:42;;;;;;;15.75;8.85;;;17.20;99.90;;;;;;4955282;29;20085;-83
2021/06/07 08:31:09;;;;;;;16.08;9.13;;;17.20;99.90;;;;;;4955611;29;20058;-82
2021/06/07 08:33:36;;;;;;;18.02;10.85;;;17.30;99.90;;;;;;4955646;29;20137;-83
2021/06/07 08:36:04;;;;;;;16.27;9.75;;;17.30;99.90;;;;;;4955976;29;20061;-83
2021/06/07 08:38:31;;;;;;;17.52;9.68;;;17.30;99.90;;;;;;4954679;28;20450;-83
2021/06/07 08:40:57;;;;;;;14.52;8.93;;;17.40;99.90;;;;;;4955355;29;20146;-82
2021/06/07 08:43:25;;;;;;;17.73;10.18;;;17.50;99.90;;;;;;4955816;29;20556;-83
2021/06/07 08:45:54;;;;;;;15.98;9.55;;;17.50;99.90;;;;;;4957331;29;20058;-83
2021/06/07 08:48:21;;;;;;;14.00;8.73;;;17.50;99.90;;;;;;4957481;29;20067;-83
2021/06/07 08:50:48;;;;;;;15.68;9.23;;;17.50;99.90;;;;;;4955411;29;20149;-81
2021/06/07 08:53:15;;;;;;;17.30;9.50;;;17.50;99.90;;;;;;4955402;29;20587;-83
2021/06/07 08:55:42;;;;;;;16.67;10.48;;;17.50;99.90;;;;;;4954886;29;20134;-84
2021/06/07 08:58:09;;;;;;;15.65;8.98;;;17.50;99.90;;;;;;4955444;29;20062;-83
2021/06/07 09:00:39;;;;;;;13.60;8.30;;;17.50;99.90;;;;;;4955681;29;20138;-83
2021/06/07 09:03:11;;;;;;;11.27;6.57;;;17.50;99.90;;;;;;4955300;29;20086;-82
2021/06/07 09:05:39;;;;;;;11.50;6.82;;;17.40;99.90;;;;;;4955781;29;20059;-83
2021/06/07 09:08:08;;;;;;;10.18;6.35;;;17.40;99.90;;;;;;4955602;29;20105;-82
2021/06/07 09:10:38;;;;;;;9.95;6.53;;;17.40;99.90;;;;;;4954614;29;20134;-83
2021/06/07 09:13:08;;;;;;;12.68;7.35;;;17.40;99.90;;;;;;4955649;29;20129;-83
2021/06/07 09:15:38;;;;;;;11.55;6.47;;;17.40;99.90;;;;;;4955507;29;20135;-82
2021/06/07 09:18:09;;;;;;;9.80;6.32;;;17.40;99.90;;;;;;4954932;29;20141;-83
2021/06/07 09:20:37;;;;;;;10.57;6.03;;;17.40;99.90;;;;;;4955031;29;20444;-84
2021/06/07 09:23:07;;;;;;;11.18;6.63;;;17.40;99.90;;;;;;4955268;29;20166;-83
2021/06/07 09:25:37;;;;;;;10.48;6.47;;;17.40;99.90;;;;;;4955016;29;20059;-83
2021/06/07 09:28:18;;;;;;;10.68;6.78;;;17.50;99.90;;;;;;4955425;29;20142;-82
2021/06/07 09:30:50;;;;;;;12.40;8.00;;;17.40;99.90;;;;;;4955025;29;20058;-82
2021/06/07 09:33:34;;;;;;;13.75;7.97;;;17.50;99.90;;;;;;4954690;29;20059;-82
2021/06/07 09:36:17;;;;;;;;;;;17.50;99.90;;;;;;4955235;29;20055;-82
2021/06/07 09:39:07;;;;;;;11.65;7.10;;;17.50;99.90;;;;;;4954705;29;19923;-82
2021/06/07 09:41:53;;;;;;;12.20;7.38;;;17.50;99.90;;;;;;4954514;29;20058;-83
2021/06/07 09:44:27;;;;;;;11.80;7.60;;;17.50;99.90;;;;;;4954468;29;20074;-82
2021/06/07 09:47:18;;;;;;;12.97;7.70;;;17.50;99.90;;;;;;4954772;29;20102;-82
2021/06/07 09:49:53;;;;;;;11.55;7.15;;;17.50;99.90;;;;;;4955204;28;20043;-83
2021/06/07 09:52:24;;;;;;;12.50;8.07;;;17.50;99.90;;;;;;4958182;29;20463;-83
2021/06/07 09:55:10;;;;;;;13.93;8.30;;;17.60;99.90;;;;;;4958137;29;20577;-84
2021/06/07 09:57:43;;;;;;;13.10;8.88;;;17.60;99.90;;;;;;4957914;29;20459;-83
2021/06/07 10:00:10;;;;;;;13.38;8.45;;;17.60;99.90;;;;;;4958143;29;20161;-83
2021/06/07 10:02:38;;;;;;;13.65;8.45;;;17.60;99.90;;;;;;4957907;29;20075;-83
2021/06/07 10:05:07;;;;;;;14.90;9.00;;;17.60;99.90;;;;;;4958034;29;20082;-83
2021/06/07 10:07:34;;;;;;;13.20;8.73;;;17.70;99.90;;;;;;4957759;29;20134;-82
2021/06/07 10:10:17;;;;;;;13.95;8.68;;;17.70;99.90;;;;;;4957871;29;20159;-83
2021/06/07 10:12:46;;;;;;;12.20;8.10;;;17.70;99.90;;;;;;4957559;29;20047;-83
2021/06/07 10:15:15;;;;;;;12.65;7.78;;;17.70;99.90;;;;;;4957817;29;20393;-83
2021/06/07 10:17:42;;;;;;;12.13;7.68;;;17.80;99.90;;;;;;4957455;29;20141;-83
2021/06/07 10:22:57;;;;;;;15.43;9.27;;;17.80;99.90;;;;;;4957627;29;20054;-83
2021/06/07 10:25:23;;;;;;;12.48;8.20;;;17.90;99.90;;;;;;4957439;29;20047;-82
2021/06/07 10:27:50;;;;;;;13.05;8.65;;;17.90;99.90;;;;;;4957705;29;20142;-83
2021/06/07 10:30:21;;;;;;;13.88;8.38;;;18.00;99.90;;;;;;4957357;29;20141;-83
2021/06/07 10:32:49;;;;;;;12.40;8.13;;;18.00;99.90;;;;;;4957336;29;20569;-83
2021/06/07 10:35:31;;;;;;;12.18;7.60;;;18.00;99.90;;;;;;4957620;29;20128;-82
2021/06/07 10:38:10;;;;;;;13.10;8.43;;;18.10;99.90;;;;;;4957660;29;20137;-83
2021/06/07 10:40:43;;;;;;;11.63;7.38;;;18.20;99.90;;;;;;4957380;29;20137;-83
2021/06/07 10:43:12;;;;;;;11.82;7.68;;;18.20;99.90;;;;;;4957721;29;20469;-83
2021/06/07 10:45:41;;;;;;;11.77;7.60;;;18.20;99.90;;;;;;4962685;29;20386;-83
2021/06/07 10:48:09;;;;;;;13.93;7.95;;;18.20;99.90;;;;;;4969752;29;20472;-82
2021/06/07 10:50:44;;;;;;;11.45;7.05;;;18.30;99.90;;;;;;4960688;29;20134;-82
2021/06/07 10:53:23;;;;;;;12.32;7.70;;;18.30;99.90;;;;;;4957187;29;20051;-80
2021/06/07 10:56:05;;;;;;;11.73;7.63;;;18.30;99.90;;;;;;4957066;29;20138;-82
2021/06/07 10:58:31;;;;;;;12.85;8.38;;;18.30;99.90;;;;;;4957178;29;20090;-82
2021/06/07 11:01:01;;;;;;;10.90;7.22;;;18.40;99.90;;;;;;4956790;28;20098;-82
2021/06/07 11:03:29;;;;;;;12.30;7.68;;;18.40;99.90;;;;;;4957122;29;20121;-82
2021/06/07 11:06:00;;;;;;;14.93;9.77;;;18.40;99.90;;;;;;4957688;29;20082;-82
2021/06/07 11:08:29;;;;;;;15.32;9.70;;;18.50;99.90;;;;;;4957723;29;20303;-82
2021/06/07 11:11:01;;;;;;;15.32;10.00;;;18.50;99.90;;;;;;4957065;29;20094;-82
2021/06/07 11:13:32;;;;;;;13.07;8.80;;;18.50;99.90;;;;;;4956575;29;20137;-82
2021/06/07 11:16:01;;;;;;;13.88;8.50;;;18.50;99.90;;;;;;4957189;29;20528;-83
2021/06/07 11:18:31;;;;;;;11.00;7.38;;;18.50;99.90;;;;;;4956625;29;20110;-83
2021/06/07 11:21:23;;;;;;;12.13;8.32;;;18.50;99.90;;;;;;4957172;29;20074;-82
2021/06/07 11:23:51;;;;;;;12.57;7.95;;;18.50;99.90;;;;;;4956627;29;20122;-82
2021/06/07 11:26:23;;;;;;;12.80;7.22;;;18.50;99.90;;;;;;4956909;29;20090;-83
2021/06/07 11:28:50;;;;;;;14.40;9.20;;;18.50;99.90;;;;;;4956009;29;20134;-83
2021/06/07 11:31:52;;;;;;;13.95;8.85;;;18.50;99.90;;;;;;4956447;29;20154;-83
2021/06/07 11:34:41;;;;;;;16.17;9.43;;;18.60;99.90;;;;;;4956317;29;20047;-81
2021/06/07 11:37:11;;;;;;;18.15;12.10;;;18.60;99.90;;;;;;4956720;29;20051;-83
2021/06/07 11:39:57;;;;;;;18.85;12.27;;;18.60;99.90;;;;;;4956467;29;20131;-82
2021/06/07 11:42:27;;;;;;;19.70;12.25;;;18.60;99.90;;;;;;4956552;29;20047;-82
2021/06/07 11:44:57;;;;;;;20.23;12.48;;;18.60;99.90;;;;;;4956418;29;20564;-83
2021/06/07 11:47:49;;;;;;;18.38;11.18;;;18.60;99.90;;;;;;4956636;29;20137;-83
2021/06/07 11:50:26;;;;;;;18.88;12.25;;;18.60;99.90;;;;;;4956462;29;20135;-83
2021/06/07 11:52:54;;;;;;;16.83;11.18;;;18.60;99.90;;;;;;4956139;29;20051;-84
2021/06/07 11:55:34;;;;;;;17.52;11.40;;;18.60;99.90;;;;;;4956039;29;20119;-83
2021/06/07 11:58:13;;;;;;;18.08;11.23;;;18.60;99.90;;;;;;4956403;29;20130;-83
2021/06/07 12:00:43;;;;;;;20.08;12.60;;;18.60;99.90;;;;;;4956275;29;20087;-82
2021/06/07 12:03:14;;;;;;;19.85;13.13;;;18.60;99.90;;;;;;4955776;29;20560;-82
2021/06/07 12:05:41;;;;;;;21.75;13.10;;;18.60;99.90;;;;;;4955991;29;20145;-83
2021/06/07 12:08:10;;;;;;;20.05;12.48;;;18.60;99.90;;;;;;4956060;29;20130;-83
2021/06/07 12:10:39;;;;;;;22.08;13.55;;;18.60;99.90;;;;;;4955583;29;20483;-83
2021/06/07 12:13:30;;;;;;;20.98;11.88;;;18.60;99.90;;;;;;4955675;28;20078;-82
2021/06/07 12:16:01;;;;;;;23.02;14.10;;;18.60;99.90;;;;;;4955733;29;20055;-83
2021/06/07 12:18:39;;;;;;;19.63;13.00;;;18.60;99.90;;;;;;4955794;29;20082;-83
2021/06/07 12:21:13;;;;;;;25.73;16.45;;;18.60;99.90;;;;;;4956252;29;20086;-82
2021/06/07 12:23:45;;;;;;;22.15;14.27;;;18.60;99.90;;;;;;4955828;29;20090;-83
2021/06/07 12:29:27;;;;;;;19.52;13.07;;;18.60;99.90;;;;;;4955791;29;20058;-84
2021/06/07 12:32:17;;;;;;;21.42;13.75;;;18.60;99.90;;;;;;4955408;29;20066;-84
2021/06/07 12:35:15;;;;;;;21.05;14.18;;;18.60;99.90;;;;;;4955174;29;20051;-82
2021/06/07 12:37:46;;;;;;;23.23;15.18;;;18.60;99.90;;;;;;4877346;29;20096;-82
2021/06/07 12:40:31;;;;;;;25.55;16.13;;;18.60;99.90;;;;;;4940309;29;20051;-82
2021/06/07 12:43:13;;;;;;;26.27;16.67;;;18.60;99.90;;;;;;4955644;29;20059;-83
2021/06/07 12:45:42;;;;;;;22.52;14.70;;;18.60;99.90;;;;;;4955756;29;20062;-83
2021/06/07 12:48:11;;;;;;;21.92;14.32;;;18.60;99.90;;;;;;4955022;29;20217;-83
2021/06/07 12:50:39;;;;;;;22.48;14.20;;;18.70;99.90;;;;;;4954910;29;20147;-82
2021/06/07 12:53:06;;;;;;;21.40;13.55;;;18.70;99.90;;;;;;4955431;29;20184;-83
2021/06/07 12:55:36;;;;;;;20.75;12.80;;;18.70;99.90;;;;;;4954906;29;20560;-83
2021/06/07 12:58:10;;;;;;;22.52;15.07;;;18.70;99.90;;;;;;4955072;29;20051;-83
2021/06/07 13:00:41;;;;;;;23.77;15.35;;;18.80;99.90;;;;;;4955296;29;20589;-83
2021/06/07 13:03:27;;;;;;;21.77;12.98;;;18.80;99.90;;;;;;4955677;29;20051;-82
2021/06/07 13:06:07;;;;;;;21.17;13.65;;;19.00;99.90;;;;;;4955221;29;20066;-84
2021/06/07 13:08:35;;;;;;;24.08;15.50;;;19.10;99.90;;;;;;4955597;29;20560;-83
2021/06/07 13:11:04;;;;;;;21.08;13.95;;;19.30;99.90;;;;;;4955150;29;20467;-83
2021/06/07 13:13:36;;;;;;;18.25;11.32;;;19.50;99.90;;;;;;4954868;29;20056;-83
2021/06/07 13:16:12;;;;;;;21.13;13.52;;;19.60;99.90;;;;;;4954918;29;20453;-81
2021/06/07 13:18:55;;;;;;;22.40;14.32;;;19.70;99.90;;;;;;4954756;29;20087;-82
2021/06/07 13:21:45;;;;;;;21.80;13.55;;;19.80;99.90;;;;;;4954864;29;20055;-82
2021/06/07 13:24:16;;;;;;;18.85;12.77;;;19.90;99.90;;;;;;4955090;28;20066;-82
2021/06/07 13:26:50;;;;;;;20.10;12.95;;;19.90;99.90;;;;;;4958443;29;20126;-82
2021/06/07 13:29:26;;;;;;;20.90;12.90;;;19.90;99.90;;;;;;4958975;29;20043;-83
2021/06/07 13:32:11;;;;;;;20.85;14.35;;;19.90;99.90;;;;;;4958591;29;20142;-83
2021/06/07 13:34:48;;;;;;;19.90;12.85;;;19.80;99.90;;;;;;4958579;29;20059;-84
2021/06/07 13:37:21;;;;;;;21.33;14.65;;;19.80;99.90;;;;;;4958436;29;20485;-82
2021/06/07 13:40:07;;;;;;;17.63;12.10;;;19.70;99.90;;;;;;4958655;29;20090;-83
2021/06/07 13:42:43;;;;;;;19.13;12.93;;;19.70;99.90;;;;;;4958742;29;20056;-83
2021/06/07 13:45:13;;;;;;;17.98;12.68;;;19.70;99.90;;;;;;4958649;29;20070;-83
2021/06/07 13:47:48;;;;;;;21.48;15.02;;;19.70;99.90;;;;;;4958734;29;20452;-82
2021/06/07 13:50:18;;;;;;;18.83;13.32;;;19.70;99.90;;;;;;4966781;29;20090;-83
2021/06/07 13:52:53;;;;;;;17.85;12.63;;;19.70;99.90;;;;;;4968579;29;20079;-82
2021/06/07 13:55:31;;;;;;;17.67;12.40;;;19.70;99.90;;;;;;4968863;29;20055;-82
2021/06/07 13:58:05;;;;;;;19.40;12.95;;;19.70;99.90;;;;;;4968563;29;20082;-82
2021/06/07 14:00:37;;;;;;;16.10;11.80;;;19.70;99.90;;;;;;4967891;29;20536;-82
2021/06/07 14:03:07;;;;;;;15.88;11.50;;;19.80;99.90;;;;;;4959579;29;20179;-83
2021/06/07 14:05:34;;;;;;;15.32;11.15;;;19.80;99.90;;;;;;4968240;29;20082;-82
2021/06/07 14:08:01;;;;;;;15.75;11.25;;;19.80;99.90;;;;;;4971653;29;20086;-83
2021/06/07 14:10:28;;;;;;;15.77;11.25;;;19.80;99.90;;;;;;4960429;29;20090;-83
2021/06/07 14:12:55;;;;;;;17.33;12.57;;;19.80;99.90;;;;;;4957896;29;20142;-83
2021/06/07 14:15:22;;;;;;;14.32;10.63;;;19.90;99.90;;;;;;4958226;29;20047;-82
2021/06/07 14:17:50;;;;;;;13.05;9.27;;;19.90;99.90;;;;;;4957956;29;20165;-83
2021/06/07 14:20:17;;;;;;;14.43;10.18;;;19.90;99.90;;;;;;4958086;29;20122;-83
2021/06/07 14:25:36;;;;;;;13.38;9.05;;;20.00;99.90;;;;;;4957612;29;20131;-83
2021/06/07 14:28:05;;;;;;;14.93;10.75;;;20.00;99.90;;;;;;4957701;29;20047;-82
2021/06/07 14:30:32;;;;;;;14.23;10.52;;;20.00;99.90;;;;;;4957556;29;20281;-83
2021/06/07 14:33:00;;;;;;;14.10;9.55;;;20.00;99.90;;;;;;4957383;29;20146;-83
2021/06/07 14:35:31;;;;;;;13.52;9.60;;;20.00;99.90;;;;;;4957083;28;20059;-83
2021/06/07 14:38:02;;;;;;;12.82;9.68;;;20.00;99.90;;;;;;4957139;29;20409;-83
2021/06/07 14:40:30;;;;;;;12.20;8.20;;;19.90;99.90;;;;;;4957224;29;20170;-82
2021/06/07 14:42:56;;;;;;;13.27;9.57;;;19.90;99.90;;;;;;4957817;29;20079;-82
2021/06/07 14:45:23;;;;;;;11.77;9.13;;;19.90;99.90;;;;;;4967095;29;20524;-82
2021/06/07 14:47:51;;;;;;;14.20;10.43;;;19.90;99.90;;;;;;4968501;29;20123;-83
2021/06/07 14:50:19;;;;;;;13.50;9.73;;;19.90;99.90;;;;;;4968220;29;20044;-83
2021/06/07 14:52:46;;;;;;;11.80;8.40;;;19.80;99.90;;;;;;4966552;29;20082;-83
2021/06/07 14:55:15;;;;;;;16.13;11.27;;;19.80;99.90;;;;;;4955760;29;20055;-81
2021/06/07 14:57:42;;;;;;;11.82;8.98;;;19.80;99.90;;;;;;4954227;29;20075;-79
2021/06/07 15:00:13;;;;;;;12.02;9.23;;;19.80;99.90;;;;;;4937708;29;20044;-79
2021/06/07 15:02:40;;;;;;;14.18;10.60;;;19.90;99.90;;;;;;4928901;29;20130;-78
2021/06/07 15:05:09;;;;;;;13.93;9.90;;;19.90;99.90;;;;;;4954191;29;20142;-78
2021/06/07 15:07:37;;;;;;;14.63;9.65;;;19.90;99.90;;;;;;4938819;29;20463;-77
2021/06/07 15:10:06;;;;;;;12.65;8.82;;;19.90;99.90;;;;;;4953394;29;20045;-78
2021/06/07 15:12:33;;;;;;;13.45;8.40;;;19.90;99.90;;;;;;4947574;29;20138;-78
2021/06/07 15:15:00;;;;;;;14.13;9.85;;;19.90;99.90;;;;;;4945049;29;20133;-79
2021/06/07 15:17:27;;;;;;;13.27;9.07;;;19.90;99.90;;;;;;4939624;29;20199;-78
2021/06/07 15:19:54;;;;;;;15.45;10.73;;;19.90;99.90;;;;;;4942112;29;20143;-78
2021/06/07 15:22:21;;;;;;;12.25;8.93;;;19.90;99.90;;;;;;4931341;29;20089;-78
2021/06/07 15:24:49;;;;;;;14.02;9.82;;;19.80;99.90;;;;;;4950885;29;20489;-78
2021/06/07 15:27:16;;;;;;;11.27;8.65;;;19.80;99.90;;;;;;4941950;29;20468;-78
2021/06/07 15:29:43;;;;;;;12.75;9.60;;;19.80;99.90;;;;;;4949869;29;20628;-79
2021/06/07 15:32:10;;;;;;;13.73;9.63;;;19.80;99.90;;;;;;4937795;29;20063;-79
2021/06/07 15:34:37;;;;;;;13.10;8.98;;;20.00;99.90;;;;;;4945684;29;20070;-78
2021/06/07 15:37:04;;;;;;;14.23;10.10;;;20.00;99.90;;;;;;4947732;29;20075;-79
2021/06/07 15:39:31;;;;;;;17.48;11.88;;;20.10;99.90;;;;;;4938718;29;20542;-79
2021/06/07 15:42:00;;;;;;;15.23;11.60;;;20.20;99.90;;;;;;4939813;29;20138;-77
2021/06/07 15:44:27;;;;;;;18.15;14.18;;;20.20;99.90;;;;;;4956825;28;20505;-79
2021/06/07 15:46:53;;;;;;;14.98;10.63;;;20.20;99.90;;;;;;4953350;28;20552;-77
2021/06/07 15:49:20;;;;;;;14.27;10.18;;;20.10;99.90;;;;;;4966276;28;20138;-78
2021/06/07 15:51:47;;;;;;;16.65;11.82;;;20.10;99.90;;;;;;4973005;28;20134;-80
2021/06/07 15:54:14;;;;;;;17.75;12.93;;;20.20;99.90;;;;;;4972773;28;20138;-78
2021/06/07 15:56:41;;;;;;;19.13;12.50;;;20.20;99.90;;;;;;4972268;28;20190;-80
2021/06/07 15:59:09;;;;;;;15.82;11.27;;;20.10;99.90;;;;;;4953694;29;20089;-80
2021/06/07 16:01:35;;;;;;;13.73;10.07;;;20.10;99.90;;;;;;4953101;29;20462;-79
2021/06/07 16:04:02;;;;;;;13.85;10.13;;;20.00;99.90;;;;;;4953125;29;20578;-80
2021/06/07 16:06:30;;;;;;;14.48;10.13;;;20.10;99.90;;;;;;4953114;29;20505;-79
2021/06/07 16:08:57;;;;;;;13.63;9.18;;;20.20;99.90;;;;;;4952970;29;20047;-78
2021/06/07 16:11:23;;;;;;;15.50;10.85;;;20.30;99.90;;;;;;4952920;29;20047;-79
2021/06/07 16:13:50;;;;;;;15.02;10.00;;;20.70;99.90;;;;;;4945897;28;20592;-79
2021/06/07 16:16:22;;;;;;;13.45;8.57;;;21.10;99.90;;;;;;4942329;29;20075;-79
2021/06/07 16:18:51;;;;;;;12.70;8.55;;;21.40;99.90;;;;;;4933540;29;20058;-79
2021/06/07 16:21:19;;;;;;;13.77;8.77;;;21.60;99.90;;;;;;4950242;29;20138;-78
2021/06/07 16:23:49;;;;;;;14.73;10.43;;;22.00;99.90;;;;;;4951383;29;20500;-80
2021/06/07 16:26:18;;;;;;;11.90;8.30;;;22.10;99.90;;;;;;4952188;29;20055;-80
2021/06/07 16:28:45;;;;;;;12.40;8.93;;;22.20;99.90;;;;;;4952335;29;20081;-80
2021/06/07 16:31:12;;;;;;;15.57;10.82;;;22.30;99.70;;;;;;4953776;29;20050;-79
2021/06/07 16:33:40;;;;;;;13.45;9.50;;;22.20;98.90;;;;;;4951925;29;20062;-78
2021/06/07 16:36:07;;;;;;;16.92;12.18;;;22.10;99.10;;;;;;4952757;29;20348;-79
2021/06/07 16:38:33;;;;;;;14.70;9.63;;;22.00;98.70;;;;;;4952213;29;20055;-79
2021/06/07 16:41:00;;;;;;;12.93;10.20;;;21.80;99.00;;;;;;4952455;29;20127;-79
2021/06/07 16:43:27;;;;;;;16.13;12.02;;;21.70;99.40;;;;;;4951121;29;20138;-79
2021/06/07 16:45:53;;;;;;;15.75;9.85;;;21.60;99.40;;;;;;4952305;29;20134;-79
2021/06/07 16:48:20;;;;;;;14.15;9.77;;;21.50;99.90;;;;;;4951425;29;20142;-78
2021/06/07 16:50:49;;;;;;;12.07;7.97;;;21.50;99.90;;;;;;4951822;29;20609;-80
2021/06/07 16:53:16;;;;;;;15.40;10.52;;;21.50;99.90;;;;;;4951817;29;20126;-79
2021/06/07 16:55:44;;;;;;;14.57;10.57;;;21.40;99.90;;;;;;4951858;29;20481;-80
2021/06/07 16:58:11;;;;;;;14.60;10.75;;;21.50;99.90;;;;;;4951746;29;20475;-79
2021/06/07 17:00:40;;;;;;;15.02;11.07;;;21.40;99.90;;;;;;4950793;28;20138;-77
2021/06/07 17:03:07;;;;;;;14.07;9.90;;;21.40;99.90;;;;;;4950033;29;20055;-80
2021/06/07 17:05:34;;;;;;;14.82;10.13;;;21.20;99.80;;;;;;4951096;29;20124;-78
2021/06/07 17:08:04;;;;;;;15.77;10.95;;;21.10;99.90;;;;;;4951896;29;20118;-80
2021/06/07 17:10:33;;;;;;;15.40;11.55;;;20.90;99.90;;;;;;4956497;29;20082;-79
2021/06/07 17:13:02;;;;;;;14.20;10.57;;;20.80;99.90;;;;;;4944812;29;20055;-78
2021/06/07 17:15:33;;;;;;;14.27;9.90;;;20.80;99.90;;;;;;4958820;29;20067;-78
2021/06/07 17:18:02;;;;;;;14.80;10.23;;;20.70;99.90;;;;;;4962448;29;20047;-79
2021/06/07 17:20:31;;;;;;;14.35;10.23;;;20.60;99.90;;;;;;4962471;29;20074;-79
2021/06/07 17:22:59;;;;;;;14.07;10.00;;;20.60;99.90;;;;;;4963563;29;20056;-80
2021/06/07 17:25:27;;;;;;;14.82;9.88;;;20.50;99.90;;;;;;4954097;29;20075;-79
2021/06/07 17:27:53;;;;;;;18.98;11.98;;;20.40;99.90;;;;;;4951475;29;20118;-79
2021/06/07 17:30:21;;;;;;;17.30;11.32;;;20.40;99.90;;;;;;4941658;29;20094;-80
2021/06/07 17:32:48;;;;;;;17.42;12.32;;;20.30;99.90;;;;;;4942771;29;20142;-80
2021/06/07 17:35:16;;;;;;;18.23;12.55;;;20.20;99.90;;;;;;4934249;29;20055;-80
2021/06/07 17:37:43;;;;;;;16.67;11.55;;;20.10;99.90;;;;;;4947893;29;20481;-79
2021/06/07 17:40:11;;;;;;;18.20;13.20;;;20.10;99.90;;;;;;4936469;29;20086;-77
2021/06/07 17:42:40;;;;;;;20.42;13.45;;;20.00;99.90;;;;;;4943898;29;20098;-80
2021/06/07 17:45:08;;;;;;;22.60;13.65;;;19.90;99.90;;;;;;4951589;29;20047;-78
2021/06/07 17:47:35;;;;;;;18.40;12.38;;;19.90;99.90;;;;;;4952213;29;20082;-78
2021/06/07 17:50:03;;;;;;;19.55;13.55;;;19.80;99.90;;;;;;4961363;29;20332;-77
2021/06/07 17:52:30;;;;;;;18.83;12.85;;;19.70;99.90;;;;;;4949182;29;20051;-78
2021/06/07 17:54:56;;;;;;;21.52;14.38;;;19.70;99.90;;;;;;4935074;29;20428;-80